createdAt,value
2019-05-09T00:00:41.188Z,11.40
2019-05-09T00:03:09.773Z,11.40
2019-05-09T00:05:38.390Z,11.30
2019-05-09T00:08:07.112Z,11.20
2019-05-09T00:10:41.630Z,11.00
2019-05-09T00:13:05.957Z,11.30
2019-05-09T00:15:34.568Z,11.00
2019-05-09T00:18:03.858Z,10.90
2019-05-09T00:23:05.749Z,10.90
2019-05-09T00:25:34.529Z,11.20
2019-05-09T00:30:50.921Z,11.20
2019-05-09T00:33:23.425Z,10.80
2019-05-09T00:35:53.301Z,11.00
2019-05-09T00:38:23.965Z,10.80
2019-05-09T00:48:37.742Z,11.00
2019-05-09T00:51:06.418Z,10.70
2019-05-09T00:53:35.055Z,10.90
2019-05-09T01:21:03.706Z,10.50
2019-05-09T01:26:03.852Z,10.40
2019-05-09T01:38:33.978Z,10.40
2019-05-09T01:53:33.717Z,10.20
2019-05-09T02:21:11.359Z,9.90
2019-05-09T02:23:38.689Z,9.80
2019-05-09T02:26:07.366Z,9.70
2019-05-09T02:28:35.945Z,9.80
2019-05-09T02:31:05.500Z,10.00
2019-05-09T02:36:03.703Z,9.90
2019-05-09T02:41:00.734Z,9.90
2019-05-09T02:43:29.391Z,9.80
2019-05-09T02:45:59.874Z,9.70
2019-05-09T02:48:29.051Z,9.80
2019-05-09T02:51:00.346Z,9.70
2019-05-09T02:53:28.848Z,9.70
2019-05-09T02:55:58.521Z,9.70
2019-05-09T02:58:28.892Z,9.70
2019-05-09T03:00:59.830Z,9.60
2019-05-09T03:03:30.305Z,9.60
2019-05-09T03:05:59.713Z,9.70
2019-05-09T03:08:29.563Z,9.90
2019-05-09T03:10:59.242Z,9.80
2019-05-09T03:13:29.067Z,9.80
2019-05-09T03:15:59.581Z,9.80
2019-05-09T03:18:28.725Z,10.00
2019-05-09T03:20:59.128Z,9.70
2019-05-09T03:23:28.692Z,9.80
2019-05-09T03:25:58.833Z,9.50
2019-05-09T03:28:44.698Z,9.60
2019-05-09T03:36:11.478Z,9.70
2019-05-09T03:38:40.125Z,9.70
2019-05-09T03:41:08.765Z,9.50
2019-05-09T03:43:37.789Z,9.60
2019-05-09T03:46:24.693Z,9.60
2019-05-09T03:48:58.326Z,10.10
2019-05-09T03:51:27.465Z,9.60
2019-05-09T03:53:57.612Z,9.60
2019-05-09T03:56:30.970Z,9.70
2019-05-09T03:58:59.549Z,9.40
2019-05-09T04:01:28.249Z,9.20
2019-05-09T04:03:58.438Z,9.30
2019-05-09T04:06:28.160Z,9.10
2019-05-09T04:13:58.792Z,9.30
2019-05-09T04:29:28.510Z,9.60
2019-05-09T04:31:57.539Z,9.00
2019-05-09T04:34:27.500Z,9.00
2019-05-09T04:36:57.636Z,9.10
2019-05-09T04:39:28.375Z,9.20
2019-05-09T04:42:03.722Z,9.10
2019-05-09T04:44:29.367Z,9.10
2019-05-09T04:47:00.111Z,9.20
2019-05-09T04:49:30.014Z,9.10
2019-05-09T04:51:58.631Z,9.00
2019-05-09T04:54:28.041Z,9.10
2019-05-09T04:56:57.450Z,9.10
2019-05-09T05:02:00.732Z,9.10
2019-05-09T05:04:29.331Z,9.40
2019-05-09T05:06:58.602Z,9.50
2019-05-09T05:09:27.810Z,9.60
2019-05-09T05:11:58.075Z,9.40
2019-05-09T05:14:28.472Z,9.70
2019-05-09T05:17:06.235Z,9.70
2019-05-09T05:19:28.627Z,9.70
2019-05-09T05:21:59.607Z,9.40
2019-05-09T05:24:32.708Z,9.70
2019-05-09T05:27:01.323Z,9.50
2019-05-09T05:29:29.927Z,9.90
2019-05-09T05:32:00.179Z,9.80
2019-05-09T05:34:30.512Z,10.10
2019-05-09T05:36:59.080Z,9.90
2019-05-09T05:39:28.304Z,9.80
2019-05-09T05:41:57.844Z,9.90
2019-05-09T05:44:28.372Z,10.10
2019-05-09T05:47:07.685Z,10.20
2019-05-09T05:49:38.471Z,10.20
2019-05-09T05:52:08.055Z,10.30
2019-05-09T05:54:37.839Z,10.30
2019-05-09T05:57:09.508Z,10.40
2019-05-09T05:59:40.895Z,10.50
2019-05-09T06:02:08.925Z,10.50
2019-05-09T06:04:38.225Z,10.70
2019-05-09T06:07:07.996Z,10.90
2019-05-09T06:09:37.891Z,10.90
2019-05-09T06:12:08.213Z,11.10
2019-05-09T06:17:08.043Z,11.40
2019-05-09T06:19:37.905Z,11.30
2019-05-09T06:22:08.308Z,11.50
2019-05-09T06:24:38.712Z,11.40
2019-05-09T06:27:10.190Z,11.40
2019-05-09T06:29:38.557Z,11.40
2019-05-09T06:32:08.048Z,12.00
2019-05-09T06:34:41.383Z,11.40
2019-05-09T06:37:09.065Z,11.40
2019-05-09T06:39:37.970Z,11.60
2019-05-09T06:42:08.906Z,11.30
2019-05-09T06:44:41.096Z,11.40
2019-05-09T06:47:14.051Z,11.60
2019-05-09T06:49:44.274Z,11.70
2019-05-09T06:52:12.900Z,11.70
2019-05-09T06:54:41.919Z,12.30
2019-05-09T06:57:10.577Z,12.20
2019-05-09T06:59:39.160Z,12.30
2019-05-09T07:02:12.324Z,12.10
2019-05-09T07:04:42.569Z,12.50
2019-05-09T07:07:28.143Z,12.40
2019-05-09T07:09:58.780Z,12.70
2019-05-09T07:12:27.551Z,13.50
2019-05-09T07:14:58.076Z,12.80
2019-05-09T07:17:31.919Z,12.70
2019-05-09T07:19:58.715Z,12.80
2019-05-09T07:25:11.083Z,12.90
2019-05-09T07:27:39.493Z,13.10
2019-05-09T07:30:13.567Z,13.40
2019-05-09T07:33:02.229Z,13.30
2019-05-09T07:35:30.808Z,13.30
2019-05-09T07:37:59.418Z,13.60
2019-05-09T07:40:30.735Z,13.40
2019-05-09T07:42:58.579Z,13.50
2019-05-09T07:45:28.129Z,13.50
2019-05-09T07:47:58.381Z,13.10
2019-05-09T07:50:27.772Z,13.40
2019-05-09T07:52:58.148Z,13.60
2019-05-09T07:55:27.477Z,13.40
2019-05-09T07:57:58.990Z,13.50
2019-05-09T08:00:34.968Z,13.40
2019-05-09T08:03:03.713Z,13.40
2019-05-09T08:05:32.431Z,13.70
2019-05-09T08:08:01.092Z,13.60
2019-05-09T08:12:59.608Z,13.90
2019-05-09T08:15:28.422Z,14.20
2019-05-09T08:17:59.169Z,14.30
2019-05-09T08:20:27.897Z,14.60
2019-05-09T08:23:01.293Z,14.40
2019-05-09T08:25:27.728Z,14.60
2019-05-09T08:27:58.855Z,14.30
2019-05-09T08:30:33.032Z,14.50
2019-05-09T08:32:59.610Z,14.40
2019-05-09T08:35:28.108Z,14.60
2019-05-09T08:37:58.400Z,15.10
2019-05-09T08:40:28.416Z,15.40
2019-05-09T08:42:58.794Z,15.30
2019-05-09T08:45:31.324Z,15.20
2019-05-09T08:47:58.309Z,15.50
2019-05-09T08:50:34.685Z,16.00
2019-05-09T08:53:03.476Z,15.70
2019-05-09T08:55:32.072Z,16.50
2019-05-09T08:58:00.652Z,16.10
2019-05-09T09:00:29.272Z,16.00
2019-05-09T09:02:57.983Z,15.60
2019-05-09T09:05:28.925Z,15.60
2019-05-09T09:07:57.886Z,15.90
2019-05-09T09:10:29.142Z,16.00
2019-05-09T09:12:57.962Z,15.80
2019-05-09T09:15:50.377Z,15.80
2019-05-09T09:17:57.869Z,15.70
2019-05-09T09:20:28.876Z,15.60
2019-05-09T09:22:58.193Z,15.70
2019-05-09T09:25:28.709Z,15.80
2019-05-09T09:27:58.182Z,16.00
2019-05-09T09:30:29.208Z,16.10
2019-05-09T09:32:58.538Z,16.10
2019-05-09T09:35:27.863Z,16.00
2019-05-09T09:37:58.085Z,16.40
2019-05-09T09:40:27.949Z,16.70
2019-05-09T09:42:58.125Z,16.60
2019-05-09T09:45:28.026Z,16.30
2019-05-09T09:47:59.139Z,16.50
2019-05-09T09:50:27.780Z,16.40
2019-05-09T09:52:58.783Z,16.60
2019-05-09T09:55:27.802Z,16.60
2019-05-09T09:57:57.816Z,16.30
2019-05-09T10:00:48.562Z,16.50
2019-05-09T10:03:25.747Z,16.90
2019-05-09T10:05:54.338Z,16.80
2019-05-09T10:08:22.872Z,16.80
2019-05-09T10:10:51.634Z,16.80
2019-05-09T10:13:20.167Z,16.60
2019-05-09T10:15:59.096Z,16.30
2019-05-09T10:18:29.298Z,16.20
2019-05-09T10:21:14.815Z,16.60
2019-05-09T10:23:43.357Z,16.20
2019-05-09T10:26:11.919Z,15.90
2019-05-09T10:28:40.463Z,16.20
2019-05-09T10:31:09.090Z,16.90
2019-05-09T10:33:37.731Z,16.60
2019-05-09T10:36:08.541Z,16.90
2019-05-09T10:38:38.636Z,16.40
2019-05-09T10:41:10.878Z,16.50
2019-05-09T10:43:50.708Z,16.40
2019-05-09T10:46:52.115Z,16.30
2019-05-09T10:49:08.766Z,15.60
2019-05-09T10:51:37.319Z,15.40
2019-05-09T10:54:08.100Z,15.40
2019-05-09T10:56:38.349Z,15.40
2019-05-09T10:59:07.802Z,15.50
2019-05-09T11:01:38.213Z,15.00
2019-05-09T11:04:08.159Z,15.20
2019-05-09T11:06:38.209Z,15.20
2019-05-09T11:09:09.354Z,15.30
2019-05-09T11:11:38.184Z,15.20
2019-05-09T11:14:08.568Z,15.40
2019-05-09T11:19:08.027Z,15.60
2019-05-09T11:21:39.201Z,15.90
2019-05-09T11:26:39.562Z,15.30
2019-05-09T11:29:07.936Z,15.70
2019-05-09T11:31:38.494Z,15.20
2019-05-09T11:34:08.827Z,14.60
2019-05-09T11:36:38.013Z,14.90
2019-05-09T11:39:10.832Z,14.00
2019-05-09T11:41:38.946Z,12.90
2019-05-09T11:44:08.507Z,12.30
2019-05-09T11:46:38.290Z,11.90
2019-05-09T11:49:08.409Z,11.70
2019-05-09T11:51:37.272Z,11.40
2019-05-09T11:54:08.792Z,11.20
2019-05-09T11:56:38.181Z,11.00
2019-05-09T11:59:07.838Z,11.30
2019-05-09T12:01:39.405Z,11.70
2019-05-09T12:04:08.080Z,11.70
2019-05-09T12:06:38.287Z,11.10
2019-05-09T12:09:08.970Z,11.30
2019-05-09T12:11:41.264Z,11.70
2019-05-09T12:14:08.924Z,11.90
2019-05-09T12:16:38.220Z,12.10
2019-05-09T12:19:06.953Z,11.90
2019-05-09T12:21:44.488Z,12.30
2019-05-09T12:24:05.839Z,12.80
2019-05-09T12:26:34.390Z,12.90
2019-05-09T12:29:02.950Z,13.10
2019-05-09T12:31:31.508Z,13.10
2019-05-09T12:34:01.091Z,13.20
2019-05-09T12:36:29.642Z,12.90
2019-05-09T12:38:59.238Z,13.00
2019-05-09T12:41:31.397Z,13.10
2019-05-09T12:43:58.472Z,13.40
2019-05-09T12:46:28.431Z,13.10
2019-05-09T12:48:59.108Z,13.50
2019-05-09T12:51:28.210Z,13.50
2019-05-09T12:53:57.809Z,13.50
2019-05-09T12:56:28.441Z,13.70
2019-05-09T12:58:57.874Z,14.10
2019-05-09T13:01:26.624Z,14.30
2019-05-09T13:06:23.393Z,14.30
2019-05-09T13:08:52.015Z,14.70
2019-05-09T13:11:20.493Z,14.80
2019-05-09T13:13:49.060Z,14.50
2019-05-09T13:19:08.884Z,15.10
2019-05-09T13:21:39.001Z,15.30
2019-05-09T13:24:08.491Z,15.10
2019-05-09T13:26:38.554Z,15.20
2019-05-09T13:29:08.229Z,15.00
2019-05-09T13:31:39.301Z,14.90
2019-05-09T13:34:07.991Z,14.90
2019-05-09T13:36:36.918Z,14.80
2019-05-09T13:39:09.176Z,14.90
2019-05-09T13:41:38.971Z,15.00
2019-05-09T13:44:13.225Z,15.10
2019-05-09T13:46:38.760Z,15.30
2019-05-09T13:49:12.427Z,15.70
2019-05-09T13:51:47.601Z,15.90
2019-05-09T13:54:07.969Z,16.10
2019-05-09T13:56:36.576Z,16.00
2019-05-09T14:01:33.435Z,16.10
2019-05-09T14:04:02.198Z,15.90
2019-05-09T14:06:30.747Z,16.10
2019-05-09T14:08:59.959Z,16.10
2019-05-09T14:11:29.325Z,16.00
2019-05-09T14:13:57.957Z,16.20
2019-05-09T14:16:28.795Z,16.10
2019-05-09T14:19:00.602Z,16.20
2019-05-09T14:21:29.539Z,16.20
2019-05-09T14:24:10.702Z,16.40
2019-05-09T14:26:27.827Z,16.40
2019-05-09T14:31:29.910Z,16.60
2019-05-09T14:33:56.487Z,16.50
2019-05-09T14:38:53.275Z,17.00
2019-05-09T14:41:21.816Z,16.90
2019-05-09T14:43:50.380Z,17.60
2019-05-09T14:46:18.972Z,17.00
2019-05-09T14:48:48.226Z,16.80
2019-05-09T14:53:48.578Z,16.60
2019-05-09T14:56:16.935Z,16.40
2019-05-09T14:58:45.543Z,16.30
2019-05-09T15:01:14.247Z,16.40
2019-05-09T15:03:42.788Z,16.40
2019-05-09T15:06:11.420Z,16.30
2019-05-09T15:08:39.996Z,16.10
2019-05-09T15:11:10.012Z,16.30
2019-05-09T15:13:38.713Z,16.10
2019-05-09T15:16:08.880Z,16.30
2019-05-09T15:18:38.638Z,16.50
2019-05-09T15:21:07.984Z,16.80
2019-05-09T15:23:39.072Z,16.90
2019-05-09T15:28:38.410Z,16.50
2019-05-09T15:31:08.896Z,16.80
2019-05-09T15:33:37.520Z,16.60
2019-05-09T15:36:06.239Z,16.50
2019-05-09T15:38:34.798Z,16.50
2019-05-09T15:41:03.565Z,16.00
2019-05-09T15:43:32.207Z,16.40
2019-05-09T15:46:02.412Z,16.20
2019-05-09T15:48:31.023Z,16.00
2019-05-09T15:50:59.585Z,16.20
2019-05-09T15:53:28.123Z,15.90
2019-05-09T15:55:58.791Z,16.20
2019-05-09T16:00:58.887Z,16.30
2019-05-09T16:03:27.882Z,16.20
2019-05-09T16:05:58.439Z,16.00
2019-05-09T16:08:28.795Z,16.00
2019-05-09T16:10:58.106Z,16.10
2019-05-09T16:13:28.442Z,15.80
2019-05-09T16:15:57.616Z,16.20
2019-05-09T16:18:28.644Z,16.10
2019-05-09T16:20:57.976Z,16.10
2019-05-09T16:23:28.874Z,15.80
2019-05-09T16:25:58.529Z,15.70
2019-05-09T16:28:27.163Z,15.40
2019-05-09T16:30:55.723Z,15.30
2019-05-09T16:33:24.264Z,15.30
2019-05-09T16:35:53.194Z,15.50
2019-05-09T16:38:21.788Z,15.40
2019-05-09T16:40:50.343Z,14.80
2019-05-09T16:43:18.957Z,13.90
2019-05-09T16:45:48.094Z,13.60
2019-05-09T16:48:18.446Z,12.70
2019-05-09T16:50:57.712Z,12.90
2019-05-09T16:53:18.544Z,12.30
2019-05-09T16:55:47.484Z,12.50
2019-05-09T16:58:18.697Z,12.50
2019-05-09T17:00:48.441Z,12.50
2019-05-09T17:03:17.718Z,12.20
2019-05-09T17:05:46.656Z,12.50
2019-05-09T17:08:17.567Z,12.30
2019-05-09T17:10:48.372Z,12.40
2019-05-09T17:13:18.231Z,12.30
2019-05-09T17:15:46.280Z,12.50
2019-05-09T17:18:14.916Z,12.70
2019-05-09T17:20:47.608Z,12.40
2019-05-09T17:23:20.089Z,12.50
2019-05-09T17:25:48.725Z,13.20
2019-05-09T17:28:17.849Z,12.70
2019-05-09T17:30:49.048Z,12.90
2019-05-09T17:33:16.949Z,12.90
2019-05-09T17:35:47.976Z,13.10
2019-05-09T17:38:17.971Z,13.10
2019-05-09T17:40:48.230Z,13.20
2019-05-09T17:43:18.279Z,13.10
2019-05-09T17:45:47.855Z,13.10
2019-05-09T17:50:46.476Z,13.10
2019-05-09T17:53:15.185Z,13.00
2019-05-09T17:55:43.783Z,13.30
2019-05-09T18:03:10.455Z,13.10
2019-05-09T18:05:39.193Z,12.70
2019-05-09T18:08:08.173Z,12.70
2019-05-09T18:10:38.057Z,12.80
2019-05-09T18:13:08.041Z,12.80
2019-05-09T18:15:37.971Z,12.70
2019-05-09T18:18:06.683Z,12.70
2019-05-09T18:20:37.709Z,12.90
2019-05-09T18:23:07.990Z,12.90
2019-05-09T18:25:37.750Z,12.70
2019-05-09T18:28:06.752Z,12.70
2019-05-09T18:30:35.357Z,12.90
2019-05-09T18:33:08.356Z,13.00
2019-05-09T18:35:38.027Z,12.70
2019-05-09T18:38:08.002Z,12.70
2019-05-09T18:40:36.608Z,12.70
2019-05-09T18:43:07.569Z,12.60
2019-05-09T18:45:37.545Z,12.50
2019-05-09T18:48:08.265Z,12.40
2019-05-09T18:50:36.279Z,12.50
2019-05-09T18:53:05.004Z,12.40
2019-05-09T18:55:33.613Z,12.60
2019-05-09T18:58:02.209Z,12.80
2019-05-09T19:00:30.810Z,12.70
2019-05-09T19:02:59.447Z,12.90
2019-05-09T19:05:28.013Z,12.40
2019-05-09T19:07:56.571Z,12.50
2019-05-09T19:10:25.644Z,12.50
2019-05-09T19:12:54.275Z,12.80
2019-05-09T19:18:15.973Z,12.50
2019-05-09T19:20:46.144Z,12.60
2019-05-09T19:23:14.884Z,12.60
2019-05-09T19:25:43.411Z,12.80
2019-05-09T19:28:11.977Z,12.90
2019-05-09T19:30:40.516Z,12.80
2019-05-09T19:33:09.076Z,12.40
2019-05-09T19:35:37.711Z,12.50
2019-05-09T19:38:06.322Z,12.40
2019-05-09T19:40:34.860Z,12.50
2019-05-09T19:45:31.660Z,12.70
2019-05-09T19:48:00.288Z,12.70
2019-05-09T19:50:28.900Z,12.70
2019-05-09T19:55:25.774Z,12.40
2019-05-09T19:57:54.372Z,12.30
2019-05-09T20:02:51.399Z,12.40
2019-05-09T20:05:19.963Z,12.40
2019-05-09T20:07:48.505Z,12.30
2019-05-09T20:10:18.783Z,12.30
2019-05-09T20:12:48.967Z,12.50
2019-05-09T20:15:24.581Z,12.40
2019-05-09T20:17:53.113Z,12.30
2019-05-09T20:20:21.676Z,12.30
2019-05-09T20:22:52.899Z,12.10
2019-05-09T20:25:20.507Z,12.40
2019-05-09T20:27:49.058Z,12.50
2019-05-09T20:37:42.654Z,12.20
2019-05-09T20:40:11.444Z,12.40
2019-05-09T20:42:40.165Z,12.50
2019-05-09T20:45:09.451Z,12.50
2019-05-09T20:47:38.208Z,12.10
2019-05-09T20:50:07.515Z,12.40
2019-05-09T20:52:36.332Z,12.60
2019-05-09T20:55:05.932Z,12.90
2019-05-09T20:57:34.655Z,12.50
2019-05-09T21:00:05.309Z,12.20
2019-05-09T21:05:02.464Z,12.40
2019-05-09T21:07:31.212Z,12.10
2019-05-09T21:09:59.948Z,12.00
2019-05-09T21:12:28.669Z,12.10
2019-05-09T21:14:57.417Z,12.40
2019-05-09T21:17:26.140Z,12.10
2019-05-09T21:22:23.268Z,12.10
2019-05-09T21:24:52.012Z,12.20
2019-05-09T21:27:21.324Z,12.00
2019-05-09T21:29:50.085Z,12.00
2019-05-09T21:32:18.796Z,12.00
2019-05-09T21:34:47.371Z,12.10
2019-05-09T21:42:12.357Z,12.30
2019-05-09T21:44:40.895Z,11.80
2019-05-09T21:47:09.456Z,11.90
2019-05-09T21:49:37.997Z,11.80
2019-05-09T21:52:06.660Z,12.00
2019-05-09T21:54:35.212Z,12.20
2019-05-09T21:57:03.864Z,12.00
2019-05-09T21:59:32.400Z,12.40
2019-05-09T22:02:01.105Z,12.20
2019-05-09T22:04:29.716Z,11.90
2019-05-09T22:06:58.291Z,11.90
2019-05-09T22:09:26.860Z,11.70
2019-05-09T22:11:55.500Z,11.70
2019-05-09T22:14:24.104Z,11.90
2019-05-09T22:16:53.459Z,12.00
2019-05-09T22:19:22.016Z,12.00
2019-05-09T22:21:50.582Z,11.90
2019-05-09T22:24:19.144Z,11.90
2019-05-09T22:26:47.735Z,11.90
2019-05-09T22:29:16.371Z,11.70
2019-05-09T22:34:13.137Z,11.70
2019-05-09T22:36:41.764Z,11.80
2019-05-09T22:39:10.400Z,11.70
2019-05-09T22:41:38.960Z,11.70
2019-05-09T22:44:07.504Z,11.80
2019-05-09T22:46:36.040Z,11.70
2019-05-09T22:49:04.677Z,12.00
2019-05-09T22:51:33.211Z,11.70
2019-05-09T22:54:12.368Z,11.80
2019-05-09T22:56:31.978Z,11.70
2019-05-09T22:59:00.568Z,11.80
2019-05-09T23:01:29.172Z,11.80
2019-05-09T23:03:57.730Z,11.80
2019-05-09T23:06:26.273Z,11.80
2019-05-09T23:11:23.059Z,11.50
2019-05-09T23:13:54.390Z,11.50
2019-05-09T23:16:24.340Z,11.40
2019-05-09T23:18:53.636Z,11.60
2019-05-09T23:21:24.080Z,11.20
2019-05-09T23:23:54.448Z,11.60
2019-05-09T23:26:23.858Z,11.50
2019-05-09T23:28:52.544Z,11.60
2019-05-09T23:31:22.796Z,11.10
2019-05-09T23:36:19.567Z,11.20
2019-05-09T23:39:06.236Z,11.30
2019-05-09T23:41:34.797Z,11.20
2019-05-09T23:44:03.436Z,11.40
2019-05-09T23:46:32.044Z,11.70
2019-05-09T23:49:00.608Z,11.10
2019-05-09T23:51:39.887Z,11.20
2019-05-09T23:54:07.700Z,11.10
2019-05-09T23:56:54.441Z,11.40
2019-05-09T23:59:41.155Z,11.40
